Flight Track Log - Related Links

Times and Time Zones

All times are in EDT time to prevent confusion due to time zone crossing. See the N468ER flight status page for this flight to view local times or setup timezone preferences in your user account.

Time Position Orientation Groundspeed Altitude Reporting Facility
EDT Latitude Longitude Course Direction KTS MPH feet Rate Location/Type
Mon 12:33:10 PM 44.5972 -108.9831 11° North 85 98 7,100  Level Salt Lake Center
Mon 12:34:12 PM 44.6197 -108.9694 23° Northeast 87 100 7,600 484 Climbing Salt Lake Center
Mon 12:35:14 PM 44.6469 -108.9567 18° North 87 100 8,100 435 Climbing Salt Lake Center
Mon 12:36:16 PM 44.6708 -108.9447 20° North 88 101 8,500 387 Climbing Salt Lake Center
Mon 12:37:18 PM 44.6953 -108.9372 12° North 90 104 8,900 339 Climbing Salt Lake Center
Mon 12:38:00 PM 44.6904 -108.9615 11° North  Level Estimated
Mon 12:38:20 PM 44.7189 -108.9375 360° North 87 100 9,200  Level Salt Lake Center
Mon 12:39:22 PM 44.7414 -108.9300 13° North 85 98 9,400 242 Climbing Salt Lake Center
Mon 12:40:24 PM 44.7656 -108.9233 11° North 86 99 9,700 290 Climbing Salt Lake Center
Mon 12:41:26 PM 44.7961 -108.9142 12° North 89 102 10,000 242 Climbing Salt Lake Center
Mon 12:42:28 PM 44.8217 -108.9064 12° North 92 106 10,200 97 Climbing Salt Lake Center
Mon 12:43:30 PM 44.8494 -108.9017 North 95 109 10,200 -48 Level Salt Lake Center
Mon 12:44:32 PM 44.8819 -108.8956 North 104 120 10,100 -48 Descending Salt Lake Center
Mon 12:45:34 PM 44.9158 -108.8931 North 113 130 10,100  Level Salt Lake Center
Mon 12:46:36 PM 44.9492 -108.8811 14° North 118 136 10,100  Level Salt Lake Center
Mon 12:47:38 PM 44.9861 -108.8675 15° North 118 136 10,100  Level Salt Lake Center
Mon 12:48:40 PM 45.0164 -108.8572 13° North 116 133 10,100  Level Salt Lake Center
Mon 12:49:42 PM 45.0475 -108.8503 North 114 131 10,100 48 Level Salt Lake Center
Mon 12:50:44 PM 45.0781 -108.8422 11° North 113 130 10,200 -48 Climbing Salt Lake Center
Mon 12:51:46 PM 45.1108 -108.8322 12° North 109 125 10,000 -97 Descending Salt Lake Center
Mon 12:52:48 PM 45.1394 -108.8214 15° North 108 124 10,000 48 Level Salt Lake Center
Mon 12:53:50 PM 45.1708 -108.8078 17° North 109 125 10,100  Climbing Salt Lake Center
Mon 12:54:52 PM 45.2014 -108.8008 North 113 130 10,000 -48 Descending Salt Lake Center
Mon 12:55:54 PM 45.2350 -108.7903 12° North 115 132 10,000  Level Salt Lake Center
Mon 12:56:56 PM 45.2647 -108.7806 13° North 111 128 10,000 49 Level Salt Lake Center
Mon 12:57:57 PM 45.2964 -108.7719 11° North 109 125 10,100  Climbing Salt Lake Center
Mon 12:58:59 PM 45.3281 -108.7611 14° North 117 135 10,000  Descending Salt Lake Center
Mon 01:00:01 PM 45.3606 -108.7519 11° North 112 129 10,100 -97 Climbing Salt Lake Center
Mon 01:01:03 PM 45.3917 -108.7492 North 113 130 9,800 -484 Descending Salt Lake Center
Mon 01:02:05 PM 45.4256 -108.7361 15° North 118 136 9,100 -677 Descending Salt Lake Center
Mon 01:03:07 PM 45.4589 -108.7269 11° North 123 142 8,400 -677 Descending Salt Lake Center
Mon 01:04:09 PM 45.4950 -108.7156 12° North 123 142 7,700 -677 Descending Salt Lake Center
Mon 01:05:11 PM 45.5211 -108.6831 41° Northeast 142 163 7,000 -585 Descending Salt Lake Center
Mon 01:06:12 PM 45.5389 -108.6300 64° Northeast 141 162 6,500 -244 Descending Salt Lake Center
Mon 01:07:14 PM 45.5553 -108.5856 62° Northeast 130 150 6,500  Level Salt Lake Center
Mon 01:08:16 PM 45.5750 -108.5386 59° Northeast 129 148 6,500 48 Level Salt Lake Center
Mon 01:09:18 PM 45.5939 -108.4975 57° Northeast 126 145 6,600 -97 Climbing Salt Lake Center
Mon 01:10:20 PM 45.6147 -108.4511 57° Northeast 129 148 6,300 -293 Descending Salt Lake Center
Mon 01:11:21 PM 45.6322 -108.4044 62° Northeast 135 155 6,000 -146 Descending Salt Lake Center
Mon 01:12:23 PM 45.6522 -108.3619 56° Northeast 122 140 6,000  Level Salt Lake Center
Mon 01:13:25 PM 45.6708 -108.3242 55° Northeast 117 135 6,000  Level Salt Lake Center
Mon 01:14:27 PM 45.6897 -108.2811 58° Northeast 120 138 6,000 -97 Level Salt Lake Center
Mon 01:15:29 PM 45.7106 -108.2686 23° Northeast 107 123 5,800 -145 Descending Salt Lake Center
Mon 01:16:31 PM 45.7372 -108.2897 331° Northwest 102 117 5,700 -98 Descending Salt Lake Center
Mon 01:17:32 PM 45.7469 -108.3189 296° West 91 105 5,600  Descending Salt Lake Center
Mon 01:18:34 PM 45.7550 -108.3489 291° West 76 87 5,700 -48 Climbing Salt Lake Center
Mon 01:19:36 PM 45.7622 -108.3758 291° West 75 86 5,500 -290 Descending Salt Lake Center
Mon 01:20:38 PM 45.7719 -108.4100 292° West 85 98 5,100 -387 Descending Salt Lake Center
Mon 01:21:40 PM 45.7808 -108.4403 293° West 85 98 4,700 -435 Descending Salt Lake Center
Mon 01:22:42 PM 45.7886 -108.4686 291° West 81 93 4,200 -439 Descending Salt Lake Center
Mon 01:23:43 PM 45.7967 -108.4967 292° West 73 84 3,800 -393 Descending Salt Lake Center

Login

Don't have an account? Register now (free) for customized features, flight alerts, and more!